Latest Weather Observations for Christmas Creek

IDW60801

Issued at 5:34 pm WST Saturday 25 March 2017 (issued every 30 minutes, with the page automatically refreshed every 10 minutes)

About weather observations | Map of weather stations | Latest weather observations for WA | Other Formats
Station Details ID: 505049 Name: CHRISTMAS CREEK Lat: -22.36 Lon: 119.65 Height: 437.21 m
Data from the previous 72 hours. | See also: Recent months for locations in Western Australia
Date/Time
WST
Temp
°C
App
Temp
°C
Dew
Point
°C
Rel
Hum
%
Delta-T
°C
Wind Press
QNH
hPa
Press
MSL
hPa
Rain since
9am
mm
Dir  Spd
km/h
Gust
km/h
Spd
kts
Gust
kts
25/05:30pm 30.8 32.9 20.1 53 7.2 WNW 9 13 5 7 1008.2 1005.1 0.0
25/05:00pm 32.0 33.8 19.6 47 8.3 NNW 9 13 5 7 1008.2 1005.1 0.0
25/04:30pm 32.2 33.7 19.8 48 8.3 NNW 11 19 6 10 1008.0 1004.9 0.0
25/04:00pm 32.9 34.4 19.7 45 8.9 N 11 19 6 10 1007.9 1004.8 0.0
25/03:30pm 32.8 34.4 20.0 47 8.6 NNW 11 20 6 11 1008.0 1004.9 0.0
25/03:00pm 32.7 34.7 19.9 46 8.6 NW 9 22 5 12 1008.1 1005.0 0.0
25/02:30pm 32.7 33.8 19.6 46 8.8 NNW 13 22 7 12 1008.3 1005.2 0.0
25/02:00pm 31.9 34.0 20.2 50 7.9 W 9 17 5 9 1008.5 1005.3 0.0
25/01:30pm 31.6 32.9 20.2 50 7.7 NW 13 24 7 13 1008.8 1005.6 0.0
25/01:00pm 32.2 35.0 20.8 51 7.8 NNW 7 24 4 13 1009.2 1006.0 0.0
25/12:30pm 30.8 33.7 20.7 55 6.8 NNW 6 15 3 8 1009.6 1006.4 0.0
25/12:00pm 31.1 33.4 20.7 54 7.0 N 9 26 5 14 1010.0 1006.9 0.0
25/11:30am 29.6 33.5 22.6 66 4.8 WSW 6 13 3 7 1010.4 1007.3 0.0
25/11:00am 29.1 32.8 23.3 71 4.0 W 9 13 5 7 1010.9 1007.7 0.0
25/10:30am 29.3 32.6 21.8 64 5.1 NW 7 13 4 7 1011.2 1008.0 0.0
25/10:00am 28.6 32.2 22.1 68 4.5 NW 6 9 3 5 1011.5 1008.3 0.0
25/09:30am 28.0 31.9 23.6 77 3.1 NW 9 15 5 8 1011.5 1008.3 0.0
25/09:00am 26.8 30.0 22.4 77 3.0 NNW 9 15 5 8 1011.5 1008.3 -
25/08:53am 26.5 29.6 22.8 80 2.5 NNW 11 19 6 10 1011.5 1008.3 -
25/08:30am 26.7 29.6 23.2 81 2.4 N 13 19 7 10 1011.4 1008.2 -
25/08:01am 26.1 29.6 23.6 86 1.7 N 11 17 6 9 1011.0 1007.8 -
25/08:00am 26.0 29.5 23.5 86 1.7 N 11 17 6 9 1011.0 1007.8 -
25/07:00am 24.8 29.1 23.6 93 0.8 NNE 7 11 4 6 1010.7 1007.6 0.8
25/06:30am 24.4 29.1 23.4 94 0.7 NE 4 6 2 3 1010.4 1007.3 0.8
25/06:00am 24.3 29.2 23.1 93 0.8 SE 2 4 1 2 1010.1 1007.0 0.8
25/05:30am 24.2 28.8 23.2 94 0.7 SW 4 4 2 2 1010.0 1006.9 0.8
25/05:00am 24.2 29.3 23.3 95 0.6 WSW 2 6 1 3 1009.6 1006.4 0.8
25/04:30am 24.3 29.4 23.3 94 0.7 NNW 2 2 1 1 1009.4 1006.2 0.8
25/04:29am 24.3 29.4 23.3 94 0.7 NNW 2 2 1 1 1009.4 1006.2 0.8
25/04:00am 24.2 29.2 23.2 94 0.7 NNW 2 4 1 2 1009.2 1006.0 0.8
25/03:30am 24.1 28.7 23.2 95 0.6 N 4 6 2 3 1009.3 1006.1 0.8
25/03:00am 24.0 28.8 22.8 93 0.8 ENE 2 4 1 2 1009.3 1006.1 0.8
25/02:30am 24.1 29.0 23.1 94 0.7 SE 2 6 1 3 1009.3 1006.1 0.8
25/02:27am 24.1 29.0 23.1 94 0.7 SE 2 4 1 2 1009.3 1006.1 0.8
25/02:00am 24.0 28.5 23.0 94 0.7 WSW 4 6 2 3 1009.3 1006.1 0.8
25/01:30am 24.2 28.1 22.6 91 1.1 WNW 6 7 3 4 1009.5 1006.3 0.8
25/01:07am 24.5 27.1 22.6 89 1.3 WNW 13 19 7 10 1009.5 1006.3 0.8
25/01:00am 24.5 27.1 22.6 89 1.3 W 13 20 7 11 1009.5 1006.3 0.8
25/12:30am 25.0 28.1 23.6 92 1.0 NNW 13 20 7 11 1009.7 1006.5 0.8
25/12:17am 25.0 28.1 23.6 92 1.0 NNW 13 19 7 10 1009.8 1006.7 0.8
25/12:00am 25.0 27.4 23.6 92 1.0 NW 17 24 9 13 1009.8 1006.7 0.8
 
Date/Time
WST
Temp
°C
App
Temp
°C
Dew
Point
°C
Rel
Hum
%
Delta-T
°C
Wind Press
QNH
hPa
Press
MSL
hPa
Rain since
9am
mm
Dir  Spd
km/h
Gust
km/h
Spd
kts
Gust
kts
24/11:30pm 25.1 26.9 23.5 91 1.1 NNW 20 26 11 14 1009.7 1006.5 0.8
24/11:00pm 25.2 27.5 23.4 90 1.2 NNW 17 24 9 13 1009.8 1006.7 0.8
24/10:30pm 25.4 27.3 23.5 89 1.3 N 19 28 10 15 1010.0 1006.9 0.8
24/10:00pm 25.8 27.7 23.5 87 1.6 NNW 19 26 10 14 1009.8 1006.7 0.8
24/09:30pm 25.8 27.9 23.1 85 1.9 N 17 24 9 13 1009.5 1006.3 0.8
24/09:00pm 26.3 27.9 22.8 81 2.4 NNW 19 26 10 14 1009.3 1006.1 0.8
24/08:30pm 26.6 28.9 22.7 79 2.7 NNW 15 20 8 11 1009.0 1005.8 0.8
24/08:00pm 26.9 29.6 22.9 79 2.8 N 13 20 7 11 1008.7 1005.5 0.8
24/07:30pm 26.9 30.6 23.2 80 2.6 N 9 13 5 7 1008.5 1005.3 0.8
24/07:00pm 27.1 30.2 22.9 78 2.9 N 11 15 6 8 1008.0 1004.9 0.8
24/06:30pm 27.6 29.6 23.0 76 3.2 N 17 20 9 11 1007.4 1004.2 0.8
24/06:00pm 27.8 30.1 22.7 74 3.5 NNW 15 20 8 11 1007.1 1003.9 0.8
24/05:30pm 28.0 29.3 22.7 73 3.7 NNW 20 30 11 16 1006.7 1003.5 0.8
24/05:00pm 28.1 28.8 22.3 70 4.0 NNW 22 30 12 16 1006.6 1003.4 0.8
24/04:30pm 28.2 28.6 22.4 71 4.0 NNW 24 33 13 18 1006.4 1003.2 0.8
24/04:00pm 28.9 28.8 22.2 67 4.6 N 26 35 14 19 1006.3 1003.1 0.8
24/03:30pm 28.8 28.6 22.1 67 4.6 NNW 26 35 14 19 1006.2 1003.0 0.8
24/03:00pm 28.6 28.5 22.3 68 4.3 N 26 37 14 20 1006.5 1003.3 0.8
24/02:30pm 28.7 29.2 22.7 70 4.1 NNW 24 32 13 17 1006.5 1003.3 0.8
24/02:00pm 27.7 27.3 22.4 73 3.6 N 28 35 15 19 1006.6 1003.4 0.8
24/01:30pm 27.6 26.9 22.5 74 3.5 N 30 39 16 21 1006.7 1003.5 0.8
24/01:00pm 27.8 28.1 23.0 75 3.3 NNW 26 33 14 18 1006.9 1003.7 0.8
24/12:30pm 27.0 27.7 23.7 82 2.3 N 26 35 14 19 1007.3 1004.1 0.6
24/12:00pm 26.4 27.6 23.9 86 1.7 NNW 24 32 13 17 1007.4 1004.2 0.6
24/11:30am 25.5 26.1 23.4 88 1.5 NNW 26 33 14 18 1007.7 1004.6 0.6
24/11:00am 25.7 27.2 23.7 89 1.4 NNW 22 30 12 16 1007.9 1004.8 0.6
24/10:49am 25.3 26.4 23.7 91 1.1 NNW 24 32 13 17 1008.0 1004.9 0.6
24/10:48am 25.2 26.3 23.6 91 1.1 NNW 24 32 13 17 1008.0 1004.9 0.6
24/10:30am 24.4 26.0 23.2 93 0.8 N 20 32 11 17 1008.1 1005.0 0.6
24/10:05am 25.4 27.3 23.5 89 1.3 NNW 19 26 10 14 1008.1 1005.0 0.0
24/10:00am 25.1 27.4 23.5 91 1.1 NNW 17 26 9 14 1008.2 1005.1 0.0
24/09:45am 24.5 26.1 23.3 93 0.8 NNW 20 28 11 15 1008.2 1005.1 0.0
24/09:30am 24.6 25.9 23.4 93 0.8 N 22 33 12 18 1008.1 1005.0 0.0
24/09:09am 24.5 25.2 22.9 91 1.1 N 24 33 13 18 1008.0 1004.9 0.0
24/09:04am 24.4 25.1 23.0 92 1.0 N 24 33 13 18 1008.0 1004.9 0.0
24/09:00am 24.6 25.0 23.2 92 1.0 N 26 33 14 18 1007.9 1004.8 30.4
24/08:30am 23.8 24.5 23.0 95 0.5 N 24 33 13 18 1007.6 1004.4 30.4
24/08:17am 23.8 24.5 23.0 95 0.5 N 24 32 13 17 1007.4 1004.2 30.4
24/08:00am 23.6 24.6 22.8 95 0.5 N 22 30 12 16 1007.1 1003.9 30.4
24/07:59am 23.6 25.0 22.9 96 0.5 N 20 30 11 16 1007.0 1003.8 30.4
24/07:30am 23.6 25.0 22.8 95 0.5 N 20 28 11 15 1006.6 1003.4 30.4
24/07:19am 23.5 24.4 22.7 95 0.5 N 22 32 12 17 1006.6 1003.4 30.4
24/07:00am 23.4 24.3 22.7 96 0.5 N 22 32 12 17 1006.4 1003.2 30.4
24/06:30am 23.4 24.3 22.6 95 0.5 NNW 22 32 12 17 1005.8 1002.7 30.4
24/06:10am 23.4 23.2 22.7 96 0.5 NNW 28 41 15 22 1005.5 1002.3 30.4
24/06:00am 23.4 23.2 22.7 96 0.5 NNW 28 41 15 22 1005.3 1002.1 30.4
24/05:30am 23.3 23.8 22.6 96 0.5 N 24 33 13 18 1004.8 1001.6 30.2
24/05:09am 23.3 23.0 22.6 96 0.5 NNW 28 37 15 20 1004.7 1001.5 30.2
24/05:00am 23.3 23.0 22.6 96 0.5 NNW 28 41 15 22 1004.6 1001.4 30.0
24/04:36am 23.3 22.7 22.6 96 0.5 N 30 37 16 20 1004.3 1001.1 29.8
24/04:30am 23.3 22.7 22.6 96 0.5 N 30 46 16 25 1004.3 1001.1 29.8
24/04:00am 23.2 21.5 22.5 96 0.5 N 35 48 19 26 1003.4 1000.2 29.0
24/03:49am 23.2 21.5 22.5 96 0.5 N 35 54 19 29 1003.4 1000.2 28.8
24/03:30am 23.2 21.5 22.5 96 0.5 N 35 48 19 26 1003.3 1000.1 28.2
24/03:00am 23.4 20.3 22.6 95 0.5 N 43 59 23 32 1002.9 999.7 26.0
24/02:37am 23.3 19.9 22.5 95 0.5 NNE 44 63 24 34 1002.5 999.3 25.0
24/02:32am 23.3 19.9 22.5 95 0.5 NNE 44 59 24 32 1002.5 999.3 24.8
24/02:30am 23.3 19.8 22.3 94 0.7 NNE 44 59 24 32 1002.5 999.3 24.6
24/02:21am 23.4 20.0 22.4 94 0.7 NNE 44 61 24 33 1002.4 999.2 24.6
24/02:12am 23.2 20.4 22.5 96 0.5 NNE 41 61 22 33 1002.5 999.3 24.6
24/02:00am 22.9 19.7 22.4 97 0.3 NNE 43 57 23 31 1002.7 999.5 23.6
24/01:36am 23.2 20.0 22.4 95 0.5 NNE 43 61 23 33 1002.5 999.3 20.2
24/01:30am 23.3 20.1 22.5 95 0.5 NNE 43 59 23 32 1002.5 999.3 19.6
24/01:00am 23.4 20.6 22.4 94 0.7 NNE 41 63 22 34 1002.7 999.5 17.8
24/12:51am 23.7 20.9 22.5 93 0.8 NNE 41 59 22 32 1002.8 999.6 17.4
24/12:41am 23.9 21.9 22.5 92 1.0 NNE 37 56 20 30 1002.9 999.7 17.4
24/12:30am 24.1 21.7 22.5 91 1.1 NNE 39 56 21 30 1003.0 999.8 17.4
24/12:27am 24.1 22.1 22.5 91 1.1 NNE 37 56 20 30 1002.9 999.7 17.4
24/12:00am 24.2 22.6 22.6 91 1.1 NE 35 50 19 27 1003.1 999.9 17.4
 
Date/Time
WST
Temp
°C
App
Temp
°C
Dew
Point
°C
Rel
Hum
%
Delta-T
°C
Wind Press
QNH
hPa
Press
MSL
hPa
Rain since
9am
mm
Dir  Spd
km/h
Gust
km/h
Spd
kts
Gust
kts
23/11:40pm 24.0 22.0 22.6 92 1.0 NE 37 56 20 30 1003.3 1000.1 17.4
23/11:30pm 24.0 22.0 22.6 92 1.0 NE 37 48 20 26 1003.4 1000.2 17.4
23/11:24pm 24.1 22.3 22.9 93 0.8 NE 37 50 20 27 1003.5 1000.3 17.2
23/11:10pm 23.8 22.4 23.0 95 0.5 ENE 35 54 19 29 1003.7 1000.5 17.2
23/11:07pm 23.4 21.9 22.7 96 0.5 ENE 35 54 19 29 1003.4 1000.2 17.2
23/11:06pm 23.4 22.2 22.7 96 0.5 ENE 33 50 18 27 1003.5 1000.3 17.2
23/11:02pm 23.4 21.5 22.7 96 0.5 ENE 37 56 20 30 1003.9 1000.7 16.2
23/11:00pm 23.4 21.1 22.7 96 0.5 ENE 39 56 21 30 1004.0 1000.8 15.8
23/10:50pm 24.2 22.6 22.6 91 1.1 ENE 35 50 19 27 1004.0 1000.8 14.4
23/10:48pm 24.3 23.1 22.7 91 1.1 ENE 33 50 18 27 1004.0 1000.8 14.4
23/10:30pm 24.2 23.4 23.0 93 0.8 ENE 32 43 17 23 1004.5 1001.3 14.4
23/10:28pm 24.1 23.0 22.9 93 0.8 ENE 33 44 18 24 1004.6 1001.4 14.4
23/10:14pm 24.3 22.7 22.6 90 1.2 NE 35 48 19 26 1004.6 1001.4 14.4
23/10:00pm 24.0 23.6 23.1 95 0.6 ENE 30 48 16 26 1005.0 1001.8 14.2
23/09:57pm 23.6 24.0 23.1 97 0.3 ENE 26 48 14 26 1005.0 1001.8 14.2
23/09:54pm 23.5 24.6 23.0 97 0.3 E 22 33 12 18 1005.2 1002.0 13.6
23/09:41pm 23.6 23.9 22.9 96 0.5 E 26 39 14 21 1005.0 1001.8 10.0
23/09:30pm 23.7 24.4 22.9 95 0.5 E 24 37 13 20 1005.5 1002.3 9.4
23/09:29pm 23.8 24.5 23.0 95 0.5 E 24 37 13 20 1005.5 1002.3 9.4
23/09:23pm 23.7 24.0 22.9 95 0.5 E 26 39 14 21 1005.7 1002.6 8.6
23/09:08pm 23.9 24.9 22.9 94 0.7 ENE 22 37 12 20 1005.6 1002.4 6.6
23/09:00pm 24.1 24.6 22.7 92 1.0 ENE 24 33 13 18 1005.7 1002.6 6.0
23/08:51pm 24.1 25.1 22.9 93 0.8 ENE 22 35 12 19 1005.7 1002.6 6.0
23/08:50pm 24.0 25.4 22.8 93 0.8 ENE 20 35 11 19 1005.7 1002.6 6.0
23/08:36pm 23.9 24.9 22.9 94 0.7 ENE 22 33 12 18 1005.8 1002.7 5.8
23/08:30pm 24.0 24.7 23.0 94 0.7 ENE 24 33 13 18 1005.8 1002.7 5.6
23/08:18pm 24.0 25.5 23.0 94 0.7 ENE 20 32 11 17 1006.1 1002.9 5.4
23/08:00pm 23.9 25.3 22.9 94 0.7 ENE 20 26 11 14 1006.1 1002.9 5.4
23/07:30pm 24.0 25.4 22.8 93 0.8 ENE 20 30 11 16 1005.6 1002.4 5.4
23/07:00pm 23.9 24.3 22.5 92 1.0 ENE 24 35 13 19 1005.5 1002.3 5.2
23/06:30pm 23.9 24.3 22.5 92 1.0 ENE 24 39 13 21 1005.4 1002.2 4.8
23/06:00pm 24.3 26.0 23.1 93 0.8 E 19 26 10 14 1005.3 1002.1 4.4
23/05:48pm 24.2 26.0 23.2 94 0.7 E 19 26 10 14 1005.3 1002.1 4.4
23/05:32pm 24.2 26.4 23.2 94 0.7 E 17 24 9 13 1005.4 1002.2 3.6
23/05:30pm 24.3 26.5 23.3 94 0.7 E 17 26 9 14 1005.4 1002.2 3.4
23/05:00pm 24.8 27.3 23.2 91 1.1 E 15 22 8 12 1005.5 1002.3 2.4
23/04:30pm 25.6 28.7 23.5 88 1.5 ESE 13 19 7 10 1005.7 1002.6 2.0
23/04:00pm 25.4 28.4 23.3 88 1.5 E 13 19 7 10 1005.6 1002.4 2.0
23/03:30pm 25.1 28.7 23.7 92 1.0 ENE 11 17 6 9 1005.8 1002.7 2.0
23/03:00pm 24.5 27.5 23.3 93 0.8 NE 13 17 7 9 1006.2 1003.0 1.8
23/02:54pm 24.4 26.8 23.0 92 1.0 NNE 15 20 8 11 1006.2 1003.0 1.8
23/02:30pm 24.6 26.2 22.8 90 1.2 NE 19 26 10 14 1006.2 1003.0 1.2
23/02:21pm 25.2 25.9 22.9 87 1.6 NE 24 32 13 17 1006.3 1003.1 0.6
23/02:00pm 27.6 27.3 22.5 74 3.5 ENE 28 37 15 20 1005.9 1002.8 0.0
23/01:30pm 27.6 27.1 22.1 72 3.8 ENE 28 37 15 20 1006.3 1003.1 0.0
23/01:00pm 27.6 26.9 22.5 74 3.5 ENE 30 41 16 22 1006.6 1003.4 0.0
23/12:30pm 26.9 26.1 22.3 76 3.1 E 30 41 16 22 1007.0 1003.8 0.0
23/12:00pm 27.0 26.8 22.0 74 3.4 E 26 39 14 21 1007.2 1004.0 0.0
23/11:57am 27.1 26.6 22.1 74 3.4 E 28 46 15 25 1007.2 1004.0 0.0
23/11:30am 27.3 25.9 22.0 73 3.6 E 32 46 17 25 1007.5 1004.3 0.0
23/11:10am 27.2 26.7 22.2 74 3.4 E 28 46 15 25 1007.9 1004.8 0.0
23/11:00am 26.7 26.2 22.1 76 3.1 E 28 43 15 23 1008.0 1004.9 0.0
23/10:30am 25.8 26.1 22.3 81 2.4 E 24 37 13 20 1008.7 1005.5 0.0
23/10:00am 25.2 26.0 22.5 85 1.8 E 22 33 12 18 1009.1 1005.9 0.0
23/09:30am 25.1 26.4 22.6 86 1.7 E 20 33 11 18 1009.2 1006.0 0.0
23/09:00am 24.6 25.7 22.3 87 1.6 ESE 20 30 11 16 1009.5 1006.3 20.6
23/08:30am 24.1 25.6 22.0 88 1.4 ESE 17 28 9 15 1009.5 1006.3 20.6
23/08:00am 23.2 25.4 21.8 92 0.9 SE 13 22 7 12 1009.9 1006.8 20.6
23/07:30am 22.6 24.6 21.6 94 0.7 SE 13 20 7 11 1009.7 1006.5 20.6
23/07:00am 22.3 24.2 21.3 94 0.7 SE 13 19 7 10 1009.6 1006.4 20.6
23/06:30am 22.1 24.3 21.1 94 0.7 SE 11 17 6 9 1009.5 1006.3 20.6
23/06:29am 22.1 24.3 21.1 94 0.7 SE 11 15 6 8 1009.5 1006.3 20.6
23/06:00am 22.1 24.4 21.4 96 0.5 SE 11 17 6 9 1009.3 1006.1 20.6
23/05:44am 22.0 23.9 21.3 96 0.5 SE 13 17 7 9 1009.0 1005.8 20.6
23/05:30am 22.1 24.4 21.4 96 0.5 SE 11 15 6 8 1008.9 1005.7 20.6
23/05:24am 22.1 24.4 21.4 96 0.5 SE 11 15 6 8 1008.9 1005.7 20.6
23/05:00am 22.1 24.4 21.4 96 0.5 SE 11 17 6 9 1008.7 1005.5 20.6
23/04:30am 22.1 24.0 21.3 95 0.5 SE 13 17 7 9 1008.6 1005.4 20.6
23/04:00am 22.1 23.6 21.3 95 0.5 ESE 15 20 8 11 1008.3 1005.2 20.6
23/03:30am 22.0 24.4 21.5 97 0.3 SE 11 17 6 9 1008.5 1005.3 20.6
23/03:00am 21.8 24.5 21.3 97 0.3 SSE 9 15 5 8 1008.6 1005.4 20.6
23/02:30am 21.8 24.1 21.3 97 0.3 SE 11 19 6 10 1008.8 1005.6 20.6
23/02:00am 21.7 23.5 21.2 97 0.3 SE 13 19 7 10 1008.8 1005.6 20.6
23/01:30am 21.5 23.2 21.0 97 0.3 SSE 13 19 7 10 1009.2 1006.0 20.6
23/01:00am 21.5 23.2 21.0 97 0.3 SE 13 19 7 10 1010.0 1006.9 20.6
23/12:53am 21.4 23.2 21.1 98 0.2 SE 13 20 7 11 1010.1 1007.0 20.6
23/12:30am 21.3 23.4 21.0 98 0.2 S 11 15 6 8 1010.4 1007.3 20.2
23/12:00am 21.6 23.7 20.9 96 0.5 SE 11 15 6 8 1011.4 1008.2 19.0
 
Date/Time
WST
Temp
°C
App
Temp
°C
Dew
Point
°C
Rel
Hum
%
Delta-T
°C
Wind Press
QNH
hPa
Press
MSL
hPa
Rain since
9am
mm
Dir  Spd
km/h
Gust
km/h
Spd
kts
Gust
kts
22/11:30pm 21.7 24.3 20.5 93 0.8 E 7 11 4 6 1012.2 1009.1 17.6
22/11:27pm 21.7 24.3 20.5 93 0.8 E 7 13 4 7 1012.0 1008.9 17.6
22/11:22pm 21.5 23.7 20.3 93 0.8 ENE 9 22 5 12 1012.0 1008.9 17.6
22/11:08pm 21.4 20.9 20.7 96 0.5 E 24 35 13 19 1012.7 1009.6 16.6
22/11:00pm 21.5 21.8 20.8 96 0.5 E 20 35 11 19 1012.3 1009.2 14.8
22/10:56pm 21.8 22.3 20.8 94 0.7 E 19 30 10 16 1012.5 1009.4 11.2
22/10:50pm 22.0 23.4 21.0 94 0.7 SE 15 24 8 13 1012.3 1009.2 9.8
22/10:30pm 21.8 23.9 21.0 95 0.5 SE 11 15 6 8 1011.7 1008.5 9.8
22/10:00pm 21.9 24.1 21.1 95 0.5 S 11 17 6 9 1011.6 1008.4 9.8
22/09:52pm 22.0 23.8 21.2 95 0.5 S 13 19 7 10 1011.7 1008.5 9.8
22/09:30pm 22.1 25.3 21.3 95 0.5 SSW 6 11 3 6 1011.7 1008.5 9.8
22/09:24pm 22.1 25.1 21.3 95 0.5 SW 7 11 4 6 1011.8 1008.6 9.8
22/09:00pm 22.2 25.3 21.5 96 0.5 SSW 7 13 4 7 1011.4 1008.2 9.8
22/08:49pm 22.4 25.8 21.7 96 0.5 SSW 6 9 3 5 1011.5 1008.3 9.8
22/08:30pm 22.6 25.8 21.2 92 0.9 S 6 9 3 5 1011.9 1008.8 9.8
22/08:00pm 22.5 25.3 21.5 94 0.7 E 9 15 5 8 1012.7 1009.6 9.8
22/07:30pm 22.4 24.9 21.0 92 0.9 SE 9 17 5 9 1011.5 1008.3 9.8
22/07:00pm 23.0 24.7 20.9 88 1.4 N 13 19 7 10 1011.3 1008.1 9.8
22/06:41pm 22.2 24.0 20.3 89 1.2 NNW 11 32 6 17 1011.6 1008.4 9.2
22/06:30pm 22.2 25.8 21.2 94 0.7 WSW 4 6 2 3 1010.2 1007.1 8.4
22/06:00pm 22.1 25.2 21.1 94 0.7 SSW 6 7 3 4 1009.8 1006.7 8.2

Other Formats:

Comma delimited format used in spreadsheet applications
http://www.bom.gov.au/fwo/IDW60801/IDW60801.99737.axf

JavaScript Object Notation format (JSON) in row-major order
http://www.bom.gov.au/fwo/IDW60801/IDW60801.99737.json